createdAt,value
2019-05-15T00:00:34.592Z,9.10
2019-05-15T00:03:39.459Z,8.96
2019-05-15T00:04:39.247Z,8.87
2019-05-15T00:05:39.456Z,8.72
2019-05-15T00:06:39.245Z,8.65
2019-05-15T00:07:39.522Z,8.66
2019-05-15T00:08:39.087Z,8.68
2019-05-15T00:09:41.761Z,8.57
2019-05-15T00:10:39.450Z,8.55
2019-05-15T00:11:39.163Z,8.37
2019-05-15T00:12:39.770Z,8.44
2019-05-15T00:13:39.220Z,8.48
2019-05-15T00:14:39.061Z,8.68
2019-05-15T00:15:40.168Z,8.72
2019-05-15T00:16:39.040Z,8.71
2019-05-15T00:17:39.660Z,8.54
2019-05-15T00:18:39.334Z,8.58
2019-05-15T00:19:39.047Z,8.66
2019-05-15T00:20:39.601Z,8.57
2019-05-15T00:21:38.998Z,8.48
2019-05-15T00:22:39.236Z,8.29
2019-05-15T00:23:39.131Z,8.37
2019-05-15T00:24:38.968Z,8.42
2019-05-15T00:25:39.588Z,8.33
2019-05-15T00:26:38.947Z,8.25
2019-05-15T00:27:39.065Z,8.22
2019-05-15T00:28:39.132Z,8.07
2019-05-15T00:29:38.958Z,8.04
2019-05-15T00:30:39.105Z,8.12
2019-05-15T00:31:39.008Z,8.25
2019-05-15T00:32:39.520Z,8.22
2019-05-15T00:33:39.545Z,8.11
2019-05-15T00:34:38.890Z,8.17
2019-05-15T00:35:39.538Z,7.94
2019-05-15T00:36:38.874Z,7.97
2019-05-15T00:37:39.195Z,8.02
2019-05-15T00:38:39.224Z,7.94
2019-05-15T00:39:39.186Z,8.07
2019-05-15T00:40:39.535Z,8.20
2019-05-15T00:41:50.284Z,8.04
2019-05-15T00:42:38.841Z,7.84
2019-05-15T00:43:38.932Z,7.97
2019-05-15T00:44:38.842Z,7.96
2019-05-15T00:45:38.947Z,7.84
2019-05-15T00:46:38.815Z,7.94
2019-05-15T00:47:39.767Z,8.03
2019-05-15T00:48:39.931Z,8.03
2019-05-15T00:49:38.865Z,8.11
2019-05-15T00:50:39.570Z,8.03
2019-05-15T00:51:39.153Z,8.04
2019-05-15T00:52:39.250Z,7.93
2019-05-15T00:53:39.108Z,7.84
2019-05-15T00:54:38.920Z,7.81
2019-05-15T00:55:38.752Z,7.93
2019-05-15T00:56:39.225Z,7.81
2019-05-15T00:57:39.410Z,7.94
2019-05-15T00:58:40.190Z,7.99
2019-05-15T00:59:39.096Z,8.00
2019-05-15T01:00:38.737Z,7.96
2019-05-15T01:01:38.778Z,7.90
2019-05-15T01:02:39.062Z,7.92
2019-05-15T01:03:39.000Z,7.89
2019-05-15T01:04:39.000Z,7.97
2019-05-15T01:05:38.887Z,7.84
2019-05-15T01:06:39.032Z,7.67
2019-05-15T01:07:39.171Z,7.60
2019-05-15T01:08:39.342Z,7.67
2019-05-15T01:09:38.710Z,7.63
2019-05-15T01:10:38.802Z,7.44
2019-05-15T01:11:38.617Z,7.47
2019-05-15T01:12:38.715Z,7.63
2019-05-15T01:13:39.000Z,7.79
2019-05-15T01:14:38.748Z,7.78
2019-05-15T01:15:38.932Z,7.71
2019-05-15T01:16:38.616Z,7.59
2019-05-15T01:17:39.300Z,7.47
2019-05-15T01:18:38.737Z,7.49
2019-05-15T01:19:38.662Z,7.37
2019-05-15T01:20:39.296Z,7.44
2019-05-15T01:21:38.674Z,7.38
2019-05-15T01:22:39.440Z,7.29
2019-05-15T01:23:39.224Z,7.29
2019-05-15T01:24:39.054Z,7.13
2019-05-15T01:25:39.126Z,7.08
2019-05-15T01:26:38.676Z,7.12
2019-05-15T01:27:38.948Z,7.20
2019-05-15T01:28:38.661Z,7.23
2019-05-15T01:29:44.805Z,7.17
2019-05-15T01:30:39.400Z,7.13
2019-05-15T01:31:38.517Z,7.09
2019-05-15T01:32:39.558Z,6.98
2019-05-15T01:33:39.113Z,7.12
2019-05-15T01:34:38.531Z,6.97
2019-05-15T01:35:38.590Z,7.04
2019-05-15T01:36:38.497Z,6.94
2019-05-15T01:37:39.166Z,6.90
2019-05-15T01:38:39.030Z,6.99
2019-05-15T01:39:38.630Z,6.98
2019-05-15T01:40:38.792Z,6.90
2019-05-15T01:41:38.788Z,6.97
2019-05-15T01:42:38.870Z,6.98
2019-05-15T01:43:38.391Z,6.98
2019-05-15T01:44:38.955Z,7.08
2019-05-15T01:45:39.428Z,6.94
2019-05-15T01:46:39.390Z,6.94
2019-05-15T01:47:39.098Z,6.90
2019-05-15T01:48:38.953Z,7.02
2019-05-15T01:49:38.539Z,6.94
2019-05-15T01:50:39.004Z,6.89
2019-05-15T01:51:38.618Z,7.01
2019-05-15T01:52:38.966Z,6.91
2019-05-15T01:53:38.573Z,6.97
2019-05-15T01:54:38.501Z,6.98
2019-05-15T01:55:39.489Z,6.90
2019-05-15T01:56:38.756Z,6.98
2019-05-15T01:57:38.687Z,6.98
2019-05-15T01:58:38.448Z,6.95
2019-05-15T01:59:40.214Z,7.08
2019-05-15T02:00:39.133Z,7.07
2019-05-15T02:01:39.176Z,7.09
2019-05-15T02:02:39.106Z,6.79
2019-05-15T02:03:38.753Z,6.65
2019-05-15T02:04:39.360Z,6.66
2019-05-15T02:05:38.981Z,6.48
2019-05-15T02:06:39.104Z,6.51
2019-05-15T02:07:38.993Z,6.53
2019-05-15T02:08:39.262Z,6.62
2019-05-15T02:09:38.549Z,6.50
2019-05-15T02:10:39.158Z,6.54
2019-05-15T02:11:38.398Z,6.69
2019-05-15T02:12:38.793Z,6.63
2019-05-15T02:13:38.980Z,6.66
2019-05-15T02:14:39.263Z,6.68
2019-05-15T02:15:39.403Z,6.69
2019-05-15T02:16:39.349Z,6.66
2019-05-15T02:17:39.200Z,6.84
2019-05-15T02:18:39.235Z,6.84
2019-05-15T02:19:39.143Z,6.76
2019-05-15T02:20:38.857Z,6.76
2019-05-15T02:21:38.168Z,6.50
2019-05-15T02:22:42.071Z,6.61
2019-05-15T02:23:38.846Z,6.61
2019-05-15T02:24:39.069Z,6.69
2019-05-15T02:25:38.746Z,6.65
2019-05-15T02:26:38.885Z,6.71
2019-05-15T02:27:39.184Z,6.69
2019-05-15T02:28:38.482Z,6.69
2019-05-15T02:29:38.085Z,6.44
2019-05-15T02:30:40.320Z,6.33
2019-05-15T02:31:39.101Z,6.50
2019-05-15T02:32:39.477Z,6.16
2019-05-15T02:33:39.911Z,6.18
2019-05-15T02:34:39.467Z,6.10
2019-05-15T02:35:39.261Z,6.16
2019-05-15T02:36:39.963Z,6.26
2019-05-15T02:37:41.176Z,6.04
2019-05-15T02:38:41.146Z,6.13
2019-05-15T02:39:38.929Z,6.40
2019-05-15T02:40:40.471Z,6.26
2019-05-15T02:41:39.633Z,6.38
2019-05-15T02:42:40.042Z,6.29
2019-05-15T02:43:38.979Z,6.22
2019-05-15T02:44:40.111Z,6.13
2019-05-15T02:45:42.189Z,6.30
2019-05-15T02:46:39.234Z,6.16
2019-05-15T02:47:39.379Z,6.19
2019-05-15T02:48:40.960Z,6.22
2019-05-15T02:49:39.679Z,6.10
2019-05-15T02:50:39.178Z,6.19
2019-05-15T02:51:39.958Z,6.22
2019-05-15T02:52:39.623Z,6.13
2019-05-15T02:53:39.543Z,6.00
2019-05-15T02:54:39.999Z,5.78
2019-05-15T02:55:40.237Z,5.83
2019-05-15T02:56:39.284Z,5.93
2019-05-15T02:57:39.374Z,5.92
2019-05-15T02:58:39.729Z,5.93
2019-05-15T02:59:39.560Z,5.93
2019-05-15T03:00:46.545Z,5.89
2019-05-15T03:01:40.443Z,5.78
2019-05-15T03:02:41.396Z,5.93
2019-05-15T03:03:38.664Z,5.92
2019-05-15T03:04:39.998Z,5.92
2019-05-15T03:05:40.606Z,6.01
2019-05-15T03:06:38.900Z,6.00
2019-05-15T03:07:40.099Z,5.98
2019-05-15T03:08:39.877Z,5.96
2019-05-15T03:09:39.913Z,5.74
2019-05-15T03:10:40.482Z,5.75
2019-05-15T03:11:40.876Z,5.86
2019-05-15T03:12:40.848Z,5.92
2019-05-15T03:13:39.169Z,5.93
2019-05-15T03:14:39.981Z,5.96
2019-05-15T03:15:40.378Z,5.85
2019-05-15T03:16:39.372Z,6.03
2019-05-15T03:17:40.357Z,5.86
2019-05-15T03:18:39.654Z,5.98
2019-05-15T03:19:39.334Z,5.83
2019-05-15T03:20:38.858Z,5.78
2019-05-15T03:21:38.848Z,5.82
2019-05-15T03:22:39.994Z,5.82
2019-05-15T03:23:40.337Z,5.71
2019-05-15T03:24:39.642Z,5.85
2019-05-15T03:25:40.533Z,5.73
2019-05-15T03:26:39.462Z,5.67
2019-05-15T03:27:39.454Z,5.70
2019-05-15T03:28:39.209Z,5.78
2019-05-15T03:29:40.317Z,5.73
2019-05-15T03:31:07.043Z,5.75
2019-05-15T03:31:52.745Z,5.78
2019-05-15T03:32:46.447Z,6.04
2019-05-15T03:33:45.094Z,6.00
2019-05-15T03:34:46.246Z,5.88
2019-05-15T03:35:42.732Z,5.91
2019-05-15T03:36:44.415Z,5.86
2019-05-15T03:37:39.812Z,5.89
2019-05-15T03:38:39.394Z,5.98
2019-05-15T03:39:39.297Z,6.30
2019-05-15T03:40:39.604Z,5.96
2019-05-15T03:41:39.233Z,5.48
2019-05-15T03:42:39.419Z,5.73
2019-05-15T03:43:39.360Z,5.55
2019-05-15T03:44:39.281Z,5.53
2019-05-15T03:45:40.340Z,5.55
2019-05-15T03:46:39.824Z,5.40
2019-05-15T03:47:40.216Z,5.32
2019-05-15T03:48:40.193Z,5.35
2019-05-15T03:49:39.671Z,5.43
2019-05-15T03:50:40.183Z,5.32
2019-05-15T03:51:41.030Z,5.49
2019-05-15T03:52:39.509Z,5.50
2019-05-15T03:53:39.952Z,5.56
2019-05-15T03:54:39.342Z,5.67
2019-05-15T03:55:40.387Z,5.53
2019-05-15T03:56:39.413Z,5.50
2019-05-15T03:57:39.993Z,5.43
2019-05-15T03:58:40.056Z,5.48
2019-05-15T03:59:39.881Z,5.45
2019-05-15T04:00:39.619Z,5.48
2019-05-15T04:01:39.783Z,5.50
2019-05-15T04:02:39.557Z,5.35
2019-05-15T04:03:39.009Z,5.34
2019-05-15T04:04:38.939Z,5.43
2019-05-15T04:05:38.917Z,5.46
2019-05-15T04:23:44.966Z,6.01
2019-05-15T04:24:44.992Z,6.11
2019-05-15T04:25:44.921Z,6.16
2019-05-15T04:26:44.902Z,6.29
2019-05-15T04:27:44.886Z,6.16
2019-05-15T04:28:44.919Z,6.11
2019-05-15T04:29:45.007Z,6.01
2019-05-15T04:30:44.930Z,6.07
2019-05-15T04:31:56.277Z,6.28
2019-05-15T04:32:44.870Z,6.36
2019-05-15T04:33:44.849Z,6.46
2019-05-15T04:34:44.880Z,6.53
2019-05-15T04:35:44.868Z,6.54
2019-05-15T04:36:44.997Z,6.69
2019-05-15T04:37:44.920Z,6.97
2019-05-15T04:38:44.909Z,6.97
2019-05-15T04:39:44.839Z,7.24
2019-05-15T04:40:44.837Z,7.50
2019-05-15T04:41:44.803Z,7.67
2019-05-15T04:42:44.804Z,8.03
2019-05-15T04:43:45.461Z,8.29
2019-05-15T04:44:44.805Z,8.53
2019-05-15T04:45:44.869Z,9.34
2019-05-15T04:46:44.822Z,9.93
2019-05-15T04:47:44.826Z,10.58
2019-05-15T04:48:44.840Z,11.01
2019-05-15T04:49:44.837Z,11.35
2019-05-15T04:50:44.842Z,11.64
2019-05-15T04:51:44.783Z,11.70
2019-05-15T04:52:44.795Z,11.78
2019-05-15T04:53:44.786Z,12.13
2019-05-15T04:54:44.801Z,12.46
2019-05-15T04:55:44.803Z,12.46
2019-05-15T04:56:44.810Z,12.63
2019-05-15T04:57:44.803Z,12.85
2019-05-15T04:58:44.827Z,13.11
2019-05-15T04:59:44.826Z,13.29
2019-05-15T05:00:44.915Z,13.58
2019-05-15T05:01:44.849Z,14.09
2019-05-15T05:02:44.817Z,14.35
2019-05-15T05:03:44.830Z,14.06
2019-05-15T05:04:44.907Z,14.09
2019-05-15T05:05:44.880Z,13.51
2019-05-15T05:06:44.971Z,12.67
2019-05-15T05:07:44.897Z,11.90
2019-05-15T05:08:44.834Z,11.70
2019-05-15T05:09:44.901Z,11.97
2019-05-15T05:10:44.927Z,12.64
2019-05-15T05:11:44.905Z,13.49
2019-05-15T05:12:44.942Z,14.49
2019-05-15T05:13:44.922Z,15.59
2019-05-15T05:14:45.021Z,16.83
2019-05-15T05:15:44.954Z,17.25
2019-05-15T05:16:44.936Z,17.84
2019-05-15T05:17:44.945Z,17.55
2019-05-15T05:18:44.943Z,17.76
2019-05-15T05:19:45.048Z,17.70
2019-05-15T05:20:44.984Z,18.39
2019-05-15T05:21:44.986Z,18.57
2019-05-15T05:22:45.021Z,18.76
2019-05-15T05:23:45.026Z,19.63
2019-05-15T05:24:45.028Z,19.20
2019-05-15T05:25:45.018Z,19.29
2019-05-15T05:26:44.999Z,20.05
2019-05-15T05:27:45.007Z,19.58
2019-05-15T05:28:45.016Z,19.17
2019-05-15T05:29:45.046Z,19.84
2019-05-15T05:30:45.121Z,20.62
2019-05-15T05:31:45.061Z,20.98
2019-05-15T05:32:45.177Z,20.96
2019-05-15T05:33:45.143Z,21.19
2019-05-15T05:34:45.098Z,21.01
2019-05-15T05:35:45.093Z,21.63
2019-05-15T05:36:45.151Z,21.23
2019-05-15T05:37:45.135Z,21.56
2019-05-15T05:38:45.163Z,21.97
2019-05-15T05:39:45.145Z,22.06
2019-05-15T05:40:45.153Z,22.12
2019-05-15T05:41:45.341Z,21.81
2019-05-15T05:42:45.251Z,22.41
2019-05-15T05:43:45.250Z,23.05
2019-05-15T05:44:45.266Z,23.05
2019-05-15T05:45:45.259Z,22.84
2019-05-15T05:46:45.230Z,22.82
2019-05-15T05:47:45.277Z,22.72
2019-05-15T05:48:45.278Z,22.49
2019-05-15T05:49:45.354Z,22.77
2019-05-15T05:50:45.292Z,23.20
2019-05-15T05:51:45.315Z,23.52
2019-05-15T05:52:45.372Z,22.74
2019-05-15T05:53:45.319Z,22.90
2019-05-15T05:54:45.448Z,23.22
2019-05-15T05:55:45.392Z,23.24
2019-05-15T05:56:45.390Z,22.22
2019-05-15T05:57:45.412Z,22.86
2019-05-15T05:58:45.435Z,21.82
2019-05-15T05:59:45.453Z,20.31
2019-05-15T06:00:45.469Z,21.74
2019-05-15T06:01:48.160Z,23.43
2019-05-15T06:02:48.792Z,22.89
2019-05-15T06:03:45.482Z,23.80
2019-05-15T06:04:47.830Z,23.04
2019-05-15T06:05:45.503Z,23.09
2019-05-15T06:06:45.531Z,23.23
2019-05-15T06:07:45.535Z,23.34
2019-05-15T06:08:47.827Z,23.40
2019-05-15T06:09:45.540Z,21.29
2019-05-15T06:10:45.563Z,17.87
2019-05-15T06:11:45.540Z,15.84
2019-05-15T06:12:45.556Z,14.57
2019-05-15T06:13:45.663Z,13.67
2019-05-15T06:14:45.643Z,13.40
2019-05-15T06:15:45.634Z,13.21
2019-05-15T06:16:47.987Z,12.78
2019-05-15T06:17:47.977Z,12.44
2019-05-15T06:18:45.603Z,12.57
2019-05-15T06:19:48.052Z,12.54
2019-05-15T06:20:45.610Z,12.19
2019-05-15T06:21:54.697Z,12.08
2019-05-15T06:22:47.761Z,11.75
2019-05-15T06:23:48.414Z,11.78
2019-05-15T06:24:45.619Z,11.96
2019-05-15T06:25:45.601Z,11.90
2019-05-15T06:26:47.998Z,11.85
2019-05-15T06:27:48.038Z,11.86
2019-05-15T06:28:45.644Z,12.05
2019-05-15T06:29:45.671Z,11.78
2019-05-15T06:30:45.622Z,11.65
2019-05-15T06:31:45.645Z,11.89
2019-05-15T06:33:03.864Z,11.74
2019-05-15T06:33:45.644Z,11.77
2019-05-15T06:34:45.589Z,11.75
2019-05-15T06:35:45.635Z,11.38
2019-05-15T06:36:45.581Z,11.01
2019-05-15T06:37:45.609Z,11.24
2019-05-15T06:38:48.144Z,11.20
2019-05-15T06:39:45.606Z,11.29
2019-05-15T06:40:45.601Z,11.41
2019-05-15T06:41:48.095Z,11.46
2019-05-15T06:42:48.253Z,11.49
2019-05-15T06:43:48.122Z,11.41
2019-05-15T06:44:45.576Z,11.43
2019-05-15T06:45:45.552Z,11.50
2019-05-15T06:46:48.156Z,11.32
2019-05-15T06:47:45.586Z,11.36
2019-05-15T06:48:45.557Z,11.31
2019-05-15T06:49:45.553Z,11.21
2019-05-15T06:50:45.527Z,11.31
2019-05-15T06:51:45.539Z,11.21
2019-05-15T06:52:45.542Z,11.34
2019-05-15T06:53:45.523Z,11.32
2019-05-15T06:54:45.610Z,11.35
2019-05-15T06:55:48.286Z,11.28
2019-05-15T06:56:45.620Z,11.07
2019-05-15T06:57:45.586Z,10.83
2019-05-15T06:58:45.582Z,10.89
2019-05-15T06:59:45.564Z,10.91
2019-05-15T07:00:48.411Z,11.10
2019-05-15T07:01:47.968Z,11.28
2019-05-15T07:02:45.484Z,11.34
2019-05-15T07:03:45.473Z,11.27
2019-05-15T07:04:45.479Z,11.14
2019-05-15T07:05:45.571Z,10.96
2019-05-15T07:06:45.475Z,11.11
2019-05-15T07:07:45.498Z,11.27
2019-05-15T07:08:45.507Z,11.24
2019-05-15T07:09:45.515Z,11.28
2019-05-15T07:10:45.455Z,11.25
2019-05-15T07:11:45.436Z,11.27
2019-05-15T07:12:48.502Z,11.27
2019-05-15T07:13:45.441Z,11.28
2019-05-15T07:14:45.428Z,11.31
2019-05-15T07:15:45.443Z,11.38
2019-05-15T07:16:45.410Z,11.29
2019-05-15T07:17:45.442Z,11.27
2019-05-15T07:18:45.440Z,11.34
2019-05-15T07:19:45.417Z,11.24
2019-05-15T07:20:45.391Z,11.27
2019-05-15T07:21:45.400Z,11.24
2019-05-15T07:22:45.385Z,11.31
2019-05-15T07:23:45.454Z,11.28
2019-05-15T07:24:47.669Z,11.24
2019-05-15T07:25:45.400Z,11.27
2019-05-15T07:26:48.204Z,11.31
2019-05-15T07:27:47.751Z,11.36
2019-05-15T07:28:45.436Z,11.25
2019-05-15T07:29:45.586Z,11.01
2019-05-15T07:30:45.345Z,11.06
2019-05-15T07:31:47.695Z,11.21
2019-05-15T07:32:45.349Z,11.25
2019-05-15T07:33:45.361Z,11.27
2019-05-15T07:34:45.351Z,11.28
2019-05-15T07:35:45.358Z,11.27
2019-05-15T07:36:48.998Z,11.32
2019-05-15T07:37:47.759Z,11.41
2019-05-15T07:38:45.312Z,11.35
2019-05-15T07:39:45.372Z,11.46
2019-05-15T07:40:45.368Z,11.44
2019-05-15T07:41:45.306Z,11.46
2019-05-15T07:42:45.326Z,11.49
2019-05-15T07:43:45.321Z,11.41
2019-05-15T07:44:48.018Z,11.36
2019-05-15T07:45:52.315Z,11.25
2019-05-15T07:46:45.280Z,11.47
2019-05-15T07:47:45.298Z,11.46
2019-05-15T07:48:45.281Z,11.47
2019-05-15T07:49:45.303Z,11.54
2019-05-15T07:50:45.260Z,11.39
2019-05-15T07:51:45.254Z,11.36
2019-05-15T07:52:45.280Z,11.38
2019-05-15T07:53:45.351Z,11.35
2019-05-15T07:54:45.256Z,11.47
2019-05-15T07:55:45.261Z,11.59
2019-05-15T07:56:45.250Z,11.65
2019-05-15T07:57:45.445Z,11.27
2019-05-15T07:58:52.084Z,11.29
2019-05-15T07:59:45.237Z,11.32
2019-05-15T08:00:45.346Z,11.47
2019-05-15T08:01:45.200Z,11.46
2019-05-15T08:02:45.197Z,11.52
2019-05-15T08:03:56.533Z,11.46
2019-05-15T08:04:45.241Z,11.54
2019-05-15T08:05:56.033Z,11.44
2019-05-15T08:06:45.217Z,11.46
2019-05-15T08:07:45.184Z,11.49
2019-05-15T08:08:45.193Z,11.53
2019-05-15T08:09:45.156Z,11.52
2019-05-15T08:10:45.181Z,11.71
2019-05-15T08:11:45.229Z,11.52
2019-05-15T08:12:45.200Z,11.46
2019-05-15T08:13:45.137Z,11.50
2019-05-15T08:14:47.412Z,11.50
2019-05-15T08:15:45.124Z,11.64
2019-05-15T08:16:45.147Z,11.70
2019-05-15T08:18:00.164Z,11.78
2019-05-15T08:18:45.122Z,11.83
2019-05-15T08:19:45.109Z,11.97
2019-05-15T08:20:45.153Z,11.90
2019-05-15T08:21:45.096Z,11.94
2019-05-15T08:22:45.979Z,11.96
2019-05-15T08:23:45.090Z,11.97
2019-05-15T08:24:45.105Z,11.93
2019-05-15T08:25:45.091Z,12.01
2019-05-15T08:26:45.715Z,12.04
2019-05-15T08:27:45.130Z,11.94
2019-05-15T08:28:45.087Z,12.08
2019-05-15T08:29:45.125Z,12.12
2019-05-15T08:30:45.139Z,12.02
2019-05-15T08:31:45.050Z,12.08
2019-05-15T08:32:48.102Z,11.86
2019-05-15T08:33:45.067Z,11.90
2019-05-15T08:34:45.064Z,11.90
2019-05-15T08:35:48.861Z,11.93
2019-05-15T08:36:45.145Z,11.85
2019-05-15T08:37:45.043Z,11.83
2019-05-15T08:38:45.086Z,11.74
2019-05-15T08:39:45.080Z,11.71
2019-05-15T08:40:45.017Z,11.70
2019-05-15T08:41:45.059Z,11.86
2019-05-15T08:42:45.105Z,11.75
2019-05-15T08:43:45.004Z,11.93
2019-05-15T08:44:44.994Z,12.09
2019-05-15T08:45:45.018Z,12.06
2019-05-15T08:46:45.047Z,12.13
2019-05-15T08:47:44.975Z,12.20
2019-05-15T08:48:45.015Z,12.12
2019-05-15T08:49:44.996Z,11.97
2019-05-15T08:50:44.994Z,12.13
2019-05-15T08:51:45.009Z,12.15
2019-05-15T08:52:45.014Z,12.20
2019-05-15T08:53:44.952Z,12.11
2019-05-15T08:54:44.953Z,12.16
2019-05-15T08:55:44.954Z,12.11
2019-05-15T08:56:44.968Z,12.04
2019-05-15T08:57:45.001Z,11.99
2019-05-15T08:58:44.961Z,12.12
2019-05-15T08:59:45.017Z,12.06
2019-05-15T09:00:44.977Z,12.11
2019-05-15T09:01:44.932Z,12.21
2019-05-15T09:02:44.941Z,12.20
2019-05-15T09:03:44.976Z,12.21
2019-05-15T09:04:44.950Z,12.38
2019-05-15T09:05:44.929Z,12.37
2019-05-15T09:06:44.950Z,12.39
2019-05-15T09:07:44.910Z,12.41
2019-05-15T09:08:44.910Z,12.45
2019-05-15T09:09:44.912Z,12.52
2019-05-15T09:10:44.868Z,12.54
2019-05-15T09:11:44.907Z,12.42
2019-05-15T09:12:44.888Z,12.48
2019-05-15T09:13:44.902Z,12.59
2019-05-15T09:14:44.882Z,12.60
2019-05-15T09:15:44.868Z,12.59
2019-05-15T09:16:44.926Z,12.21
2019-05-15T09:17:44.866Z,12.19
2019-05-15T09:18:44.885Z,12.13
2019-05-15T09:19:44.842Z,12.26
2019-05-15T09:20:44.868Z,12.39
2019-05-15T09:21:44.822Z,12.30
2019-05-15T09:22:44.818Z,12.16
2019-05-15T09:23:44.839Z,12.15
2019-05-15T09:24:45.010Z,12.33
2019-05-15T09:25:44.882Z,12.45
2019-05-15T09:26:44.866Z,12.45
2019-05-15T09:27:44.799Z,12.52
2019-05-15T09:28:54.166Z,12.56
2019-05-15T09:30:49.350Z,12.63
2019-05-15T09:31:49.331Z,12.51
2019-05-15T09:32:49.298Z,12.56
2019-05-15T09:33:49.525Z,12.64
2019-05-15T09:34:59.191Z,12.75
2019-05-15T09:36:55.064Z,12.54
2019-05-15T09:38:03.551Z,12.54
2019-05-15T09:40:09.015Z,12.67
2019-05-15T09:40:59.240Z,12.67
2019-05-15T09:41:59.273Z,12.67
2019-05-15T09:42:59.208Z,12.56
2019-05-15T09:43:59.247Z,12.44
2019-05-15T09:44:59.223Z,12.57
2019-05-15T09:45:59.200Z,12.69
2019-05-15T09:46:59.199Z,12.71
2019-05-15T09:47:59.266Z,12.67
2019-05-15T09:48:59.531Z,12.74
2019-05-15T09:49:59.179Z,12.67
2019-05-15T09:50:59.210Z,12.69
2019-05-15T09:51:59.224Z,12.69
2019-05-15T09:52:59.172Z,12.85
2019-05-15T09:53:59.690Z,12.81
2019-05-15T09:54:59.370Z,12.71
2019-05-15T09:56:00.045Z,12.57
2019-05-15T09:56:59.150Z,12.63
2019-05-15T09:57:59.229Z,12.59
2019-05-15T09:58:59.169Z,12.71
2019-05-15T09:59:59.176Z,12.71
2019-05-15T10:00:59.138Z,12.79
2019-05-15T10:01:59.196Z,12.79
2019-05-15T10:02:59.188Z,12.82
2019-05-15T10:03:59.141Z,12.84
2019-05-15T10:05:06.542Z,12.81
2019-05-15T10:05:59.135Z,12.75
2019-05-15T10:06:59.165Z,12.97
2019-05-15T10:07:59.142Z,12.95
2019-05-15T10:08:59.118Z,12.99
2019-05-15T10:09:59.133Z,12.96
2019-05-15T10:10:59.503Z,12.92
2019-05-15T10:11:59.120Z,13.02
2019-05-15T10:12:59.589Z,12.93
2019-05-15T10:13:59.115Z,12.85
2019-05-15T10:14:59.335Z,12.81
2019-05-15T10:15:59.106Z,12.82
2019-05-15T10:16:59.082Z,12.99
2019-05-15T10:17:59.711Z,12.97
2019-05-15T10:18:59.108Z,12.95
2019-05-15T10:19:59.056Z,13.00
2019-05-15T10:20:59.064Z,13.07
2019-05-15T10:21:59.650Z,12.99
2019-05-15T10:22:59.164Z,12.95
2019-05-15T10:23:59.289Z,12.95
2019-05-15T10:24:59.080Z,12.99
2019-05-15T10:25:59.136Z,13.09
2019-05-15T10:26:59.068Z,13.18
2019-05-15T10:27:59.085Z,13.27
2019-05-15T10:28:59.088Z,13.33
2019-05-15T10:29:59.085Z,13.21
2019-05-15T10:30:59.976Z,13.22
2019-05-15T10:31:59.186Z,13.09
2019-05-15T10:32:59.033Z,13.18
2019-05-15T10:33:59.016Z,13.27
2019-05-15T10:34:59.053Z,13.24
2019-05-15T10:35:59.245Z,13.21
2019-05-15T10:36:59.128Z,12.99
2019-05-15T10:37:59.262Z,13.25
2019-05-15T10:38:59.352Z,13.25
2019-05-15T10:39:58.998Z,13.29
2019-05-15T10:41:08.423Z,13.47
2019-05-15T10:41:59.030Z,13.22
2019-05-15T10:42:59.485Z,13.11
2019-05-15T10:44:00.375Z,13.20
2019-05-15T10:44:59.067Z,13.30
2019-05-15T10:45:58.978Z,13.33
2019-05-15T10:46:58.977Z,13.37
2019-05-15T10:47:58.943Z,13.25
2019-05-15T10:48:59.084Z,13.36
2019-05-15T10:50:00.155Z,13.33
2019-05-15T10:51:05.956Z,13.32
2019-05-15T10:51:58.925Z,13.27
2019-05-15T10:52:58.985Z,13.25
2019-05-15T10:53:58.936Z,13.43
2019-05-15T10:55:00.923Z,13.40
2019-05-15T10:55:59.612Z,13.46
2019-05-15T10:57:00.829Z,13.51
2019-05-15T10:57:58.969Z,13.47
2019-05-15T10:58:59.074Z,13.56
2019-05-15T10:59:58.914Z,13.62
2019-05-15T11:01:02.154Z,13.51
2019-05-15T11:01:59.151Z,13.62
2019-05-15T11:02:58.929Z,13.61
2019-05-15T11:03:59.046Z,13.63
2019-05-15T11:04:58.912Z,13.77
2019-05-15T11:05:58.929Z,13.77
2019-05-15T11:06:58.907Z,13.67
2019-05-15T11:07:59.041Z,13.65
2019-05-15T11:08:58.909Z,13.51
2019-05-15T11:09:58.887Z,13.49
2019-05-15T11:10:58.881Z,13.44
2019-05-15T11:11:58.889Z,13.56
2019-05-15T11:12:58.894Z,13.63
2019-05-15T11:14:00.570Z,13.61
2019-05-15T11:14:58.868Z,13.56
2019-05-15T11:15:58.875Z,13.62
2019-05-15T11:16:59.062Z,13.74
2019-05-15T11:17:58.920Z,13.65
2019-05-15T11:18:58.848Z,13.59
2019-05-15T11:19:58.868Z,13.51
2019-05-15T11:20:59.463Z,13.52
2019-05-15T11:21:58.872Z,13.67
2019-05-15T11:22:59.200Z,13.69
2019-05-15T11:23:59.169Z,13.84
2019-05-15T11:24:59.484Z,13.88
2019-05-15T11:25:58.834Z,13.91
2019-05-15T11:26:59.456Z,13.76
2019-05-15T11:27:59.054Z,13.80
2019-05-15T11:28:58.983Z,13.77
2019-05-15T11:29:58.803Z,13.83
2019-05-15T11:30:59.575Z,13.71
2019-05-15T11:31:58.813Z,13.95
2019-05-15T11:32:58.834Z,14.04
2019-05-15T11:33:58.793Z,13.89
2019-05-15T11:34:58.799Z,13.76
2019-05-15T11:36:05.562Z,13.91
2019-05-15T11:36:59.441Z,13.98
2019-05-15T11:37:58.762Z,13.95
2019-05-15T11:38:58.838Z,14.12
2019-05-15T11:39:59.081Z,14.29
2019-05-15T11:40:58.758Z,14.10
2019-05-15T11:41:58.779Z,14.10
2019-05-15T11:42:58.768Z,13.98
2019-05-15T11:43:58.763Z,14.01
2019-05-15T11:44:58.783Z,14.04
2019-05-15T11:45:58.992Z,14.09
2019-05-15T11:46:58.854Z,14.01
2019-05-15T11:48:01.023Z,14.06
2019-05-15T11:48:58.982Z,13.98
2019-05-15T11:49:58.755Z,14.04
2019-05-15T11:50:58.738Z,13.94
2019-05-15T11:52:00.587Z,13.87
2019-05-15T11:52:58.727Z,13.81
2019-05-15T11:53:58.923Z,13.89
2019-05-15T11:54:59.032Z,14.02
2019-05-15T11:55:59.821Z,14.21
2019-05-15T11:56:59.657Z,14.19
2019-05-15T11:57:59.385Z,14.20
2019-05-15T11:58:58.728Z,14.19
2019-05-15T11:59:59.530Z,14.25
2019-05-15T12:00:58.710Z,14.21
2019-05-15T12:01:58.697Z,14.16
2019-05-15T12:02:58.688Z,14.20
2019-05-15T12:03:58.928Z,14.21
2019-05-15T12:04:58.702Z,14.34
2019-05-15T12:06:14.608Z,14.19
2019-05-15T12:07:02.473Z,14.34
2019-05-15T12:07:58.713Z,14.39
2019-05-15T12:08:59.323Z,14.52
2019-05-15T12:09:58.681Z,14.42
2019-05-15T12:10:59.385Z,14.35
2019-05-15T12:11:58.702Z,14.28
2019-05-15T12:12:58.730Z,14.07
2019-05-15T12:13:58.657Z,14.29
2019-05-15T12:14:58.727Z,14.39
2019-05-15T12:15:58.988Z,14.44
2019-05-15T12:17:59.164Z,14.44
2019-05-15T12:19:08.552Z,14.52
2019-05-15T12:20:05.327Z,14.43
2019-05-15T12:20:59.518Z,14.46
2019-05-15T12:21:59.833Z,14.56
2019-05-15T12:22:59.451Z,14.19
2019-05-15T12:23:59.109Z,14.29
2019-05-15T12:25:00.521Z,14.42
2019-05-15T12:25:59.761Z,14.42
2019-05-15T12:27:12.654Z,14.34
2019-05-15T12:27:59.644Z,14.43
2019-05-15T12:28:59.114Z,14.46
2019-05-15T12:29:59.908Z,14.57
2019-05-15T12:30:59.797Z,14.68
2019-05-15T12:32:00.978Z,14.75
2019-05-15T12:33:00.341Z,14.56
2019-05-15T12:33:58.667Z,14.52
2019-05-15T12:34:59.996Z,14.46
2019-05-15T12:35:58.626Z,14.64
2019-05-15T12:36:58.616Z,14.47
2019-05-15T12:37:58.585Z,14.39
2019-05-15T12:38:58.583Z,14.71
2019-05-15T12:59:58.536Z,14.61
2019-05-15T13:00:58.544Z,14.68
2019-05-15T13:01:58.699Z,14.81
2019-05-15T13:02:59.339Z,14.87
2019-05-15T13:03:58.566Z,14.86
2019-05-15T13:04:58.552Z,14.91
2019-05-15T13:05:58.518Z,14.83
2019-05-15T13:07:12.133Z,14.78
2019-05-15T13:07:58.513Z,14.94
2019-05-15T13:08:59.460Z,14.95
2019-05-15T13:09:58.499Z,14.91
2019-05-15T13:10:58.500Z,15.11
2019-05-15T13:11:58.515Z,15.15
2019-05-15T13:13:04.864Z,15.09
2019-05-15T13:13:59.121Z,15.03
2019-05-15T13:14:59.102Z,15.03
2019-05-15T13:15:59.118Z,14.93
2019-05-15T13:16:59.156Z,14.80
2019-05-15T13:17:59.671Z,14.86
2019-05-15T13:18:58.967Z,14.83
2019-05-15T13:19:58.710Z,14.80
2019-05-15T13:20:59.598Z,14.91
2019-05-15T13:21:58.502Z,14.94
2019-05-15T13:22:59.370Z,14.91
2019-05-15T13:23:58.700Z,14.94
2019-05-15T13:24:58.937Z,14.81
2019-05-15T13:25:59.426Z,14.78
2019-05-15T13:26:58.480Z,14.78
2019-05-15T13:27:58.474Z,14.80
2019-05-15T13:28:58.627Z,14.81
2019-05-15T13:29:58.472Z,14.80
2019-05-15T13:30:59.690Z,14.80
2019-05-15T13:31:58.609Z,14.78
2019-05-15T13:32:58.797Z,14.74
2019-05-15T13:33:58.872Z,14.83
2019-05-15T13:34:59.504Z,14.91
2019-05-15T13:35:58.680Z,15.02
2019-05-15T13:36:59.268Z,15.26
2019-05-15T13:37:58.722Z,15.19
2019-05-15T13:38:58.474Z,15.12
2019-05-15T13:39:58.770Z,15.11
2019-05-15T13:40:59.033Z,15.08
2019-05-15T13:41:58.567Z,15.02
2019-05-15T13:42:58.963Z,15.03
2019-05-15T13:43:58.601Z,15.08
2019-05-15T13:44:58.717Z,15.09